Bledso, Texas
Current Conditions -  °F | °C
As of 2:58 PM on Thursday 23 Oct 2014 (Local Time) from KCVS Reporting Station
Clear Clear  
Wind Chill: 80°   Ceiling: Unl
Heat Index: 80°   Visibility: 10mi
Dew Point: 40°   Wind: 16mph
Humidity: 24%   Direction: 260°W
Pressure: 30.11"   Gusts: 21mph
Location:  33.6301°N, 103.023°W
Report Text: KCVS 231958Z AUTO 26014G18KT 10SM CLR 27/04 A3011 RMK AO2 SLP146 T02670043 $
Loading
Personal Weather Stations






























Interactive Weather Map
Tropical Storm Tracking
New forecast layout! Learn more

10-Day Weather Forecast

Advertisements
Track Severe Weather on mobile